PWSweather.com
Personal Weather Stations
Station Observations
DELHOVEN
DormagenDE 41540

DormagenDE 41540

Lat: 51.083, Lon: 6.775

Elevation: 120

Station Type: WH1080

Latest ConditionsUpdated 8:42:18 AM GMT+01:01 Saturday, Apr 21, 2018
Currently Today's Max Today's Min Today's Average
Temperature 62.2°F16.8°C 64.2°F17.9°C 55.9°F13.3°C 59.9°F15.5°C
Dew Point 56.7°F13.7°C 56.7°F13.7°C 52.1°F11.2°C 53.9°F12.2°C
Winds 3.1 mph NW5.0 kmh NW 6.0 mph NW9.7 kmh NW - 2.2 mph 3.5 kmh
Wind Gusts 4.5 mph7.2 kmh 8.3 mph13.4 kmh - -
Humidity 82% 89% 72% 81%
Pressure 30.22 in1023.4 mb 30.23 in1023.7 mb 30.19 in1022.4 mb -
Hour Temp Dew Point Humidity Winds Wind Gusts Pressure Precip Precip Rate Daily Precip Total
08:42 AM 62.2°F16.8°C 56.7°F13.7°C 82% 3.1 mph NW5.0 kmh NW 4.5 mph7.2 kmh 30.22 in1023.4 mb 0.00 in0.0 mm 0.00 in0.0 mm 0.00 in0.0 mm
08:37 AM 62.1°F16.7°C 56.5°F13.6°C 82% 5.4 mph WNW8.7 kmh WNW 6.0 mph9.7 kmh 30.23 in1023.7 mb 0.00 in0.0 mm 0.00 in0.0 mm 0.00 in0.0 mm
08:32 AM 61.7°F16.5°C 56.1°F13.4°C 82% 0.7 mph NW1.1 kmh NW 3.8 mph6.1 kmh 30.22 in1023.4 mb 0.00 in0.0 mm 0.00 in0.0 mm 0.00 in0.0 mm
08:27 AM 61.5°F16.4°C 56.0°F13.3°C 82% 3.1 mph NW5.0 kmh NW 4.5 mph7.2 kmh 30.23 in1023.7 mb 0.00 in0.0 mm 0.00 in0.0 mm 0.00 in0.0 mm
08:22 AM 61.3°F16.3°C 56.1°F13.4°C 83% 4.5 mph NW7.2 kmh NW 5.4 mph8.7 kmh 30.23 in1023.7 mb 0.00 in0.0 mm 0.00 in0.0 mm 0.00 in0.0 mm
08:17 AM 61.3°F16.3°C 56.1°F13.4°C 83% 3.8 mph NW6.1 kmh NW 6.0 mph9.7 kmh 30.23 in1023.7 mb 0.00 in0.0 mm 0.00 in0.0 mm 0.00 in0.0 mm
08:12 AM 61.0°F16.1°C 55.8°F13.2°C 83% 2.2 mph W3.5 kmh W 3.8 mph6.1 kmh 30.23 in1023.7 mb 0.00 in0.0 mm 0.00 in0.0 mm 0.00 in0.0 mm
08:07 AM 60.6°F15.9°C 56.1°F13.4°C 85% 3.1 mph NW5.0 kmh NW 4.5 mph7.2 kmh 30.22 in1023.4 mb 0.00 in0.0 mm 0.00 in0.0 mm 0.00 in0.0 mm
08:02 AM 60.3°F15.7°C 55.7°F13.2°C 85% 4.5 mph W7.2 kmh W 8.3 mph13.4 kmh 30.22 in1023.4 mb 0.00 in0.0 mm 0.00 in0.0 mm 0.00 in0.0 mm
07:57 AM 59.9°F15.5°C 55.4°F13.0°C 85% 3.8 mph W6.1 kmh W 5.4 mph8.7 kmh 30.22 in1023.4 mb 0.00 in0.0 mm 0.00 in0.0 mm 0.00 in0.0 mm
07:52 AM 59.5°F15.3°C 55.0°F12.8°C 85% 4.5 mph W7.2 kmh W 6.0 mph9.7 kmh 30.22 in1023.4 mb 0.00 in0.0 mm 0.00 in0.0 mm 0.00 in0.0 mm
07:47 AM 59.4°F15.2°C 54.8°F12.7°C 85% 4.5 mph W7.2 kmh W 6.0 mph9.7 kmh 30.22 in1023.4 mb 0.00 in0.0 mm 0.00 in0.0 mm 0.00 in0.0 mm
07:42 AM 59.4°F15.2°C 55.2°F12.9°C 86% 4.5 mph NW7.2 kmh NW 6.9 mph11.1 kmh 30.22 in1023.4 mb 0.00 in0.0 mm 0.00 in0.0 mm 0.00 in0.0 mm
07:37 AM 59.0°F15.0°C 54.8°F12.7°C 86% 3.1 mph NW5.0 kmh NW 5.4 mph8.7 kmh 30.22 in1023.4 mb 0.00 in0.0 mm 0.00 in0.0 mm 0.00 in0.0 mm
07:32 AM 58.8°F14.9°C 55.0°F12.8°C 87% 4.5 mph NW7.2 kmh NW 6.0 mph9.7 kmh 30.22 in1023.4 mb 0.00 in0.0 mm 0.00 in0.0 mm 0.00 in0.0 mm
07:27 AM 58.6°F14.8°C 54.8°F12.7°C 87% 2.2 mph NW3.5 kmh NW 3.8 mph6.1 kmh 30.21 in1023.0 mb 0.00 in0.0 mm 0.00 in0.0 mm 0.00 in0.0 mm
07:22 AM 58.5°F14.7°C 54.6°F12.6°C 87% 4.5 mph NW7.2 kmh NW 6.0 mph9.7 kmh 30.22 in1023.4 mb 0.00 in0.0 mm 0.00 in0.0 mm 0.00 in0.0 mm
07:17 AM 58.1°F14.5°C 54.2°F12.3°C 87% 6.0 mph NW9.7 kmh NW 7.6 mph12.2 kmh 30.22 in1023.4 mb 0.00 in0.0 mm 0.00 in0.0 mm 0.00 in0.0 mm
07:12 AM 57.9°F14.4°C 54.4°F12.4°C 88% 5.4 mph W8.7 kmh W 7.6 mph12.2 kmh 30.21 in1023.0 mb 0.00 in0.0 mm 0.00 in0.0 mm 0.00 in0.0 mm
07:07 AM 57.4°F14.1°C 53.9°F12.2°C 88% 5.4 mph NW8.7 kmh NW 6.9 mph11.1 kmh 30.21 in1023.0 mb 0.00 in0.0 mm 0.00 in0.0 mm 0.00 in0.0 mm
07:02 AM 57.4°F14.1°C 53.9°F12.2°C 88% 5.4 mph NW8.7 kmh NW 6.9 mph11.1 kmh 30.21 in1023.0 mb 0.00 in0.0 mm 0.00 in0.0 mm 0.00 in0.0 mm
06:57 AM 57.2°F14.0°C 53.7°F12.1°C 88% 4.5 mph NW7.2 kmh NW 6.0 mph9.7 kmh 30.21 in1023.0 mb 0.00 in0.0 mm 0.00 in0.0 mm 0.00 in0.0 mm
06:52 AM 56.8°F13.8°C 53.6°F12.0°C 89% 4.5 mph NW7.2 kmh NW 5.4 mph8.7 kmh 30.21 in1023.0 mb 0.00 in0.0 mm 0.00 in0.0 mm 0.00 in0.0 mm
06:47 AM 56.7°F13.7°C 53.5°F11.9°C 89% 3.8 mph NW6.1 kmh NW 5.4 mph8.7 kmh 30.21 in1023.0 mb 0.00 in0.0 mm 0.00 in0.0 mm 0.00 in0.0 mm
06:42 AM 56.5°F13.6°C 53.3°F11.8°C 89% 3.8 mph NW6.1 kmh NW 5.4 mph8.7 kmh 30.21 in1023.0 mb 0.00 in0.0 mm 0.00 in0.0 mm 0.00 in0.0 mm
06:37 AM 56.3°F13.5°C 53.1°F11.7°C 89% 3.1 mph NW5.0 kmh NW 4.5 mph7.2 kmh 30.21 in1023.0 mb 0.00 in0.0 mm 0.00 in0.0 mm 0.00 in0.0 mm
06:32 AM 56.3°F13.5°C 52.8°F11.6°C 88% 2.2 mph NW3.5 kmh NW 3.1 mph5.0 kmh 30.21 in1023.0 mb 0.00 in0.0 mm 0.00 in0.0 mm 0.00 in0.0 mm
06:27 AM 56.1°F13.4°C 52.6°F11.4°C 88% 2.2 mph NW3.5 kmh NW 3.1 mph5.0 kmh 30.21 in1023.0 mb 0.00 in0.0 mm 0.00 in0.0 mm 0.00 in0.0 mm
06:22 AM 55.9°F13.3°C 52.4°F11.3°C 88% 1.6 mph NW2.6 kmh NW 2.2 mph3.5 kmh 30.21 in1023.0 mb 0.00 in0.0 mm 0.00 in0.0 mm 0.00 in0.0 mm
06:17 AM 55.9°F13.3°C 52.4°F11.3°C 88% 2.2 mph NW3.5 kmh NW 3.1 mph5.0 kmh 30.21 in1023.0 mb 0.00 in0.0 mm 0.00 in0.0 mm 0.00 in0.0 mm
06:12 AM 55.9°F13.3°C 52.4°F11.3°C 88% 1.6 mph NW2.6 kmh NW 3.1 mph5.0 kmh 30.20 in1022.7 mb 0.00 in0.0 mm 0.00 in0.0 mm 0.00 in0.0 mm
06:07 AM 55.9°F13.3°C 52.1°F11.2°C 87% Calm Calm -- 30.20 in1022.7 mb 0.00 in0.0 mm 0.00 in0.0 mm 0.00 in0.0 mm
06:02 AM 55.9°F13.3°C 52.1°F11.2°C 87% Calm Calm -- 30.20 in1022.7 mb 0.00 in0.0 mm 0.00 in0.0 mm 0.00 in0.0 mm
05:57 AM 56.1°F13.4°C 52.3°F11.3°C 87% 2.2 mph NW3.5 kmh NW 3.1 mph5.0 kmh 30.20 in1022.7 mb 0.00 in0.0 mm 0.00 in0.0 mm 0.00 in0.0 mm
05:52 AM 56.1°F13.4°C 52.3°F11.3°C 87% 2.2 mph NW3.5 kmh NW 3.8 mph6.1 kmh 30.20 in1022.7 mb 0.00 in0.0 mm 0.00 in0.0 mm 0.00 in0.0 mm
05:47 AM 56.3°F13.5°C 52.5°F11.4°C 87% 0.7 mph NW1.1 kmh NW 2.2 mph3.5 kmh 30.20 in1022.7 mb 0.00 in0.0 mm 0.00 in0.0 mm 0.00 in0.0 mm
05:42 AM 56.3°F13.5°C 52.5°F11.4°C 87% 2.2 mph W3.5 kmh W 3.8 mph6.1 kmh 30.20 in1022.7 mb 0.00 in0.0 mm 0.00 in0.0 mm 0.00 in0.0 mm
05:36 AM 56.5°F13.6°C 52.3°F11.3°C 86% 3.1 mph NW5.0 kmh NW 4.5 mph7.2 kmh 30.20 in1022.7 mb 0.00 in0.0 mm 0.00 in0.0 mm 0.00 in0.0 mm
05:31 AM 56.7°F13.7°C 52.5°F11.4°C 86% 2.2 mph NW3.5 kmh NW 3.1 mph5.0 kmh 30.19 in1022.4 mb 0.00 in0.0 mm 0.00 in0.0 mm 0.00 in0.0 mm
05:26 AM 56.8°F13.8°C 52.7°F11.5°C 86% 2.2 mph NW3.5 kmh NW 3.1 mph5.0 kmh 30.19 in1022.4 mb 0.00 in0.0 mm 0.00 in0.0 mm 0.00 in0.0 mm
05:21 AM 56.8°F13.8°C 52.7°F11.5°C 86% Calm Calm 1.6 mph2.6 kmh 30.19 in1022.4 mb 0.00 in0.0 mm 0.00 in0.0 mm 0.00 in0.0 mm
05:16 AM 57.0°F13.9°C 52.9°F11.6°C 86% 1.6 mph W2.6 kmh W 2.2 mph3.5 kmh 30.20 in1022.7 mb 0.00 in0.0 mm 0.00 in0.0 mm 0.00 in0.0 mm
05:11 AM 57.0°F13.9°C 52.6°F11.4°C 85% 2.2 mph NW3.5 kmh NW 3.1 mph5.0 kmh 30.19 in1022.4 mb 0.00 in0.0 mm 0.00 in0.0 mm 0.00 in0.0 mm
05:06 AM 57.4°F14.1°C 52.6°F11.4°C 84% 2.2 mph NW3.5 kmh NW 3.8 mph6.1 kmh 30.19 in1022.4 mb 0.00 in0.0 mm 0.00 in0.0 mm 0.00 in0.0 mm
05:01 AM 57.4°F14.1°C 52.6°F11.4°C 84% 2.2 mph NW3.5 kmh NW 3.8 mph6.1 kmh 30.19 in1022.4 mb 0.00 in0.0 mm 0.00 in0.0 mm 0.00 in0.0 mm
04:56 AM 57.6°F14.2°C 52.8°F11.6°C 84% 2.2 mph NW3.5 kmh NW 3.1 mph5.0 kmh 30.19 in1022.4 mb 0.00 in0.0 mm 0.00 in0.0 mm 0.00 in0.0 mm
04:51 AM 57.6°F14.2°C 52.8°F11.6°C 84% 2.2 mph NW3.5 kmh NW 3.1 mph5.0 kmh 30.19 in1022.4 mb 0.00 in0.0 mm 0.00 in0.0 mm 0.00 in0.0 mm
04:46 AM 57.9°F14.4°C 53.1°F11.7°C 84% 1.6 mph NW2.6 kmh NW 2.2 mph3.5 kmh 30.19 in1022.4 mb 0.00 in0.0 mm 0.00 in0.0 mm 0.00 in0.0 mm
04:41 AM 57.9°F14.4°C 53.1°F11.7°C 84% 1.6 mph NW2.6 kmh NW 3.1 mph5.0 kmh 30.19 in1022.4 mb 0.00 in0.0 mm 0.00 in0.0 mm 0.00 in0.0 mm
04:36 AM 57.9°F14.4°C 52.8°F11.6°C 83% 2.2 mph NW3.5 kmh NW 3.8 mph6.1 kmh 30.19 in1022.4 mb 0.00 in0.0 mm 0.00 in0.0 mm 0.00 in0.0 mm
04:31 AM 58.1°F14.5°C 53.0°F11.7°C 83% 2.2 mph NW3.5 kmh NW 3.1 mph5.0 kmh 30.19 in1022.4 mb 0.00 in0.0 mm 0.00 in0.0 mm 0.00 in0.0 mm
04:26 AM 58.3°F14.6°C 52.8°F11.6°C 82% 2.2 mph NW3.5 kmh NW 3.1 mph5.0 kmh 30.20 in1022.7 mb 0.00 in0.0 mm 0.00 in0.0 mm 0.00 in0.0 mm
04:21 AM 58.5°F14.7°C 53.0°F11.7°C 82% 2.2 mph NW3.5 kmh NW 3.1 mph5.0 kmh 30.20 in1022.7 mb 0.00 in0.0 mm 0.00 in0.0 mm 0.00 in0.0 mm
04:16 AM 58.6°F14.8°C 52.8°F11.6°C 81% 2.2 mph NW3.5 kmh NW 3.1 mph5.0 kmh 30.20 in1022.7 mb 0.00 in0.0 mm 0.00 in0.0 mm 0.00 in0.0 mm
04:11 AM 58.8°F14.9°C 53.0°F11.7°C 81% 1.6 mph NW2.6 kmh NW 2.2 mph3.5 kmh 30.20 in1022.7 mb 0.00 in0.0 mm 0.00 in0.0 mm 0.00 in0.0 mm
04:06 AM 59.0°F15.0°C 52.8°F11.6°C 80% 1.6 mph NW2.6 kmh NW 3.1 mph5.0 kmh 30.20 in1022.7 mb 0.00 in0.0 mm 0.00 in0.0 mm 0.00 in0.0 mm
04:01 AM 59.2°F15.1°C 53.0°F11.7°C 80% 3.1 mph WNW5.0 kmh WNW 4.5 mph7.2 kmh 30.20 in1022.7 mb 0.00 in0.0 mm 0.00 in0.0 mm 0.00 in0.0 mm
03:56 AM 59.5°F15.3°C 53.0°F11.7°C 79% 3.8 mph NW6.1 kmh NW 4.5 mph7.2 kmh 30.20 in1022.7 mb 0.00 in0.0 mm 0.00 in0.0 mm 0.00 in0.0 mm
03:51 AM 59.7°F15.4°C 53.2°F11.8°C 79% 2.2 mph NW3.5 kmh NW 4.5 mph7.2 kmh 30.20 in1022.7 mb 0.00 in0.0 mm 0.00 in0.0 mm 0.00 in0.0 mm
03:46 AM 59.9°F15.5°C 53.4°F11.9°C 79% 3.1 mph NW5.0 kmh NW 4.5 mph7.2 kmh 30.20 in1022.7 mb 0.00 in0.0 mm 0.00 in0.0 mm 0.00 in0.0 mm
03:41 AM 59.9°F15.5°C 53.0°F11.7°C 78% 3.1 mph NW5.0 kmh NW 3.8 mph6.1 kmh 30.20 in1022.7 mb 0.00 in0.0 mm 0.00 in0.0 mm 0.00 in0.0 mm
03:36 AM 59.9°F15.5°C 53.0°F11.7°C 78% 0.7 mph NW1.1 kmh NW 1.6 mph2.6 kmh 30.20 in1022.7 mb 0.00 in0.0 mm 0.00 in0.0 mm 0.00 in0.0 mm
03:31 AM 60.1°F15.6°C 53.2°F11.8°C 78% 1.6 mph NW2.6 kmh NW 3.1 mph5.0 kmh 30.20 in1022.7 mb 0.00 in0.0 mm 0.00 in0.0 mm 0.00 in0.0 mm
03:26 AM 60.3°F15.7°C 53.0°F11.7°C 77% 2.2 mph NW3.5 kmh NW 3.1 mph5.0 kmh 30.20 in1022.7 mb 0.00 in0.0 mm 0.00 in0.0 mm 0.00 in0.0 mm
03:21 AM 60.4°F15.8°C 53.2°F11.8°C 77% 3.1 mph WNW5.0 kmh WNW 3.8 mph6.1 kmh 30.20 in1022.7 mb 0.00 in0.0 mm 0.00 in0.0 mm 0.00 in0.0 mm
03:16 AM 60.8°F16.0°C 53.2°F11.8°C 76% 1.6 mph NW2.6 kmh NW 2.2 mph3.5 kmh 30.20 in1022.7 mb 0.00 in0.0 mm 0.00 in0.0 mm 0.00 in0.0 mm
03:11 AM 61.0°F16.1°C 53.0°F11.7°C 75% 1.6 mph NW2.6 kmh NW 3.1 mph5.0 kmh 30.20 in1022.7 mb 0.00 in0.0 mm 0.00 in0.0 mm 0.00 in0.0 mm
03:06 AM 61.5°F16.4°C 53.5°F11.9°C 75% 2.2 mph NW3.5 kmh NW 3.1 mph5.0 kmh 30.21 in1023.0 mb 0.00 in0.0 mm 0.00 in0.0 mm 0.00 in0.0 mm
03:01 AM 61.5°F16.4°C 53.5°F11.9°C 75% 2.2 mph NW3.5 kmh NW 3.1 mph5.0 kmh 30.20 in1022.7 mb 0.00 in0.0 mm 0.00 in0.0 mm 0.00 in0.0 mm
02:56 AM 61.7°F16.5°C 53.3°F11.8°C 74% 1.6 mph NW2.6 kmh NW 2.2 mph3.5 kmh 30.20 in1022.7 mb 0.00 in0.0 mm 0.00 in0.0 mm 0.00 in0.0 mm
02:51 AM 62.1°F16.7°C 53.7°F12.1°C 74% 3.8 mph NW6.1 kmh NW 4.5 mph7.2 kmh 30.20 in1022.7 mb 0.00 in0.0 mm 0.00 in0.0 mm 0.00 in0.0 mm
02:46 AM 62.2°F16.8°C 53.8°F12.1°C 74% 3.1 mph WNW5.0 kmh WNW 3.8 mph6.1 kmh 30.21 in1023.0 mb 0.00 in0.0 mm 0.00 in0.0 mm 0.00 in0.0 mm
02:41 AM 62.4°F16.9°C 54.0°F12.2°C 74% 2.2 mph W3.5 kmh W 3.8 mph6.1 kmh 30.21 in1023.0 mb 0.00 in0.0 mm 0.00 in0.0 mm 0.00 in0.0 mm
02:36 AM 62.6°F17.0°C 53.4°F11.9°C 72% 2.2 mph NW3.5 kmh NW 3.8 mph6.1 kmh 30.21 in1023.0 mb 0.00 in0.0 mm 0.00 in0.0 mm 0.00 in0.0 mm
02:31 AM 63.0°F17.2°C 53.8°F12.1°C 72% 2.2 mph NW3.5 kmh NW 3.8 mph6.1 kmh 30.21 in1023.0 mb 0.00 in0.0 mm 0.00 in0.0 mm 0.00 in0.0 mm
02:26 AM 63.0°F17.2°C 53.8°F12.1°C 72% 1.6 mph NW2.6 kmh NW 2.2 mph3.5 kmh 30.21 in1023.0 mb 0.00 in0.0 mm 0.00 in0.0 mm 0.00 in0.0 mm
02:21 AM 63.1°F17.3°C 54.0°F12.2°C 72% 2.2 mph 3.5 kmh 3.8 mph6.1 kmh 30.21 in1023.0 mb 0.00 in0.0 mm 0.00 in0.0 mm 0.00 in0.0 mm
02:16 AM 63.1°F17.3°C 54.0°F12.2°C 72% 2.2 mph NW3.5 kmh NW 3.1 mph5.0 kmh 30.21 in1023.0 mb 0.00 in0.0 mm 0.00 in0.0 mm 0.00 in0.0 mm
02:11 AM 63.1°F17.3°C 54.0°F12.2°C 72% 2.2 mph WNW3.5 kmh WNW 3.1 mph5.0 kmh 30.21 in1023.0 mb 0.00 in0.0 mm 0.00 in0.0 mm 0.00 in0.0 mm
02:06 AM 63.0°F17.2°C 53.8°F12.1°C 72% 2.2 mph NW3.5 kmh NW 3.1 mph5.0 kmh 30.20 in1022.7 mb 0.00 in0.0 mm 0.00 in0.0 mm 0.00 in0.0 mm
02:01 AM 63.0°F17.2°C 53.8°F12.1°C 72% 0.7 mph NW1.1 kmh NW 1.6 mph2.6 kmh 30.21 in1023.0 mb 0.00 in0.0 mm 0.00 in0.0 mm 0.00 in0.0 mm
01:56 AM 62.8°F17.1°C 54.0°F12.2°C 73% 3.1 mph NW5.0 kmh NW 3.8 mph6.1 kmh 30.21 in1023.0 mb 0.00 in0.0 mm 0.00 in0.0 mm 0.00 in0.0 mm
01:51 AM 62.8°F17.1°C 54.0°F12.2°C 73% 0.7 mph NW1.1 kmh NW 1.6 mph2.6 kmh 30.21 in1023.0 mb 0.00 in0.0 mm 0.00 in0.0 mm 0.00 in0.0 mm
01:46 AM 62.6°F17.0°C 53.8°F12.1°C 73% 1.6 mph NW2.6 kmh NW 3.1 mph5.0 kmh 30.21 in1023.0 mb 0.00 in0.0 mm 0.00 in0.0 mm 0.00 in0.0 mm
01:41 AM 62.6°F17.0°C 53.8°F12.1°C 73% 1.6 mph NW2.6 kmh NW 3.1 mph5.0 kmh 30.21 in1023.0 mb 0.00 in0.0 mm 0.00 in0.0 mm 0.00 in0.0 mm
01:36 AM 62.2°F16.8°C 54.2°F12.3°C 75% 1.6 mph NW2.6 kmh NW 3.8 mph6.1 kmh 30.22 in1023.4 mb 0.00 in0.0 mm 0.00 in0.0 mm 0.00 in0.0 mm
01:31 AM 61.9°F16.6°C 54.2°F12.3°C 76% 2.2 mph NW3.5 kmh NW 3.1 mph5.0 kmh 30.22 in1023.4 mb 0.00 in0.0 mm 0.00 in0.0 mm 0.00 in0.0 mm
01:26 AM 61.9°F16.6°C 54.2°F12.3°C 76% 2.2 mph NW3.5 kmh NW 3.8 mph6.1 kmh 30.21 in1023.0 mb 0.00 in0.0 mm 0.00 in0.0 mm 0.00 in0.0 mm
01:21 AM 61.9°F16.6°C 54.2°F12.3°C 76% 1.6 mph NW2.6 kmh NW 2.2 mph3.5 kmh 30.22 in1023.4 mb 0.00 in0.0 mm 0.00 in0.0 mm 0.00 in0.0 mm
01:16 AM 61.9°F16.6°C 54.2°F12.3°C 76% Calm Calm -- 30.22 in1023.4 mb 0.00 in0.0 mm 0.00 in0.0 mm 0.00 in0.0 mm
01:11 AM 62.1°F16.7°C 54.8°F12.7°C 77% Calm Calm 1.6 mph2.6 kmh 30.22 in1023.4 mb 0.00 in0.0 mm 0.00 in0.0 mm 0.00 in0.0 mm
01:06 AM 62.2°F16.8°C 54.9°F12.7°C 77% Calm Calm -- 30.22 in1023.4 mb 0.00 in0.0 mm 0.00 in0.0 mm 0.00 in0.0 mm
01:01 AM 62.2°F16.8°C 54.9°F12.7°C 77% Calm Calm -- 30.22 in1023.4 mb 0.00 in0.0 mm 0.00 in0.0 mm 0.00 in0.0 mm
12:56 AM 62.4°F16.9°C 55.1°F12.8°C 77% Calm Calm 1.6 mph2.6 kmh 30.22 in1023.4 mb 0.00 in0.0 mm 0.00 in0.0 mm 0.00 in0.0 mm
12:51 AM 62.6°F17.0°C 54.6°F12.6°C 75% Calm Calm -- 30.22 in1023.4 mb 0.00 in0.0 mm 0.00 in0.0 mm 0.00 in0.0 mm
12:46 AM 62.6°F17.0°C 54.6°F12.6°C 75% Calm Calm -- 30.22 in1023.4 mb 0.00 in0.0 mm 0.00 in0.0 mm 0.00 in0.0 mm
12:41 AM 62.8°F17.1°C 54.7°F12.6°C 75% Calm Calm -- 30.22 in1023.4 mb 0.00 in0.0 mm 0.00 in0.0 mm 0.00 in0.0 mm
12:36 AM 63.0°F17.2°C 54.9°F12.7°C 75% Calm Calm -- 30.22 in1023.4 mb 0.00 in0.0 mm 0.00 in0.0 mm 0.00 in0.0 mm
12:31 AM 63.1°F17.3°C 55.1°F12.8°C 75% Calm Calm -- 30.22 in1023.4 mb 0.00 in0.0 mm 0.00 in0.0 mm 0.00 in0.0 mm
12:26 AM 63.3°F17.4°C 54.9°F12.7°C 74% Calm Calm -- 30.22 in1023.4 mb 0.00 in0.0 mm 0.00 in0.0 mm 0.00 in0.0 mm
12:21 AM 63.5°F17.5°C 55.1°F12.8°C 74% Calm Calm -- 30.22 in1023.4 mb 0.00 in0.0 mm 0.00 in0.0 mm 0.00 in0.0 mm
12:16 AM 63.7°F17.6°C 55.2°F12.9°C 74% Calm Calm -- 30.22 in1023.4 mb 0.00 in0.0 mm 0.00 in0.0 mm 0.00 in0.0 mm
12:11 AM 63.9°F17.7°C 55.4°F13.0°C 74% Calm Calm -- 30.22 in1023.4 mb 0.00 in0.0 mm 0.00 in0.0 mm 0.00 in0.0 mm
12:06 AM 64.0°F17.8°C 55.2°F12.9°C 73% Calm Calm 0.7 mph1.1 kmh 30.22 in1023.4 mb 0.00 in0.0 mm 0.00 in0.0 mm 0.00 in0.0 mm
12:01 AM 64.2°F17.9°C 55.4°F13.0°C 73% Calm Calm 0.7 mph1.1 kmh 30.22 in1023.4 mb 0.00 in0.0 mm 0.00 in0.0 mm 0.00 in0.0 mm